sensor_id;sensor_type;location;lat;lon;timestamp;P1;durP1;ratioP1;P2;durP2;ratioP2
4345;SDS011;2186;49.866;7.986;2023-04-07T00:00:25;3.00;;;2.40;;
4345;SDS011;2186;49.866;7.986;2023-04-07T00:02:52;5.97;;;2.77;;
4345;SDS011;2186;49.866;7.986;2023-04-07T00:05:19;4.57;;;2.90;;
4345;SDS011;2186;49.866;7.986;2023-04-07T00:07:46;6.93;;;2.37;;
4345;SDS011;2186;49.866;7.986;2023-04-07T00:10:22;2.87;;;2.67;;
4345;SDS011;2186;49.866;7.986;2023-04-07T00:12:48;4.03;;;1.87;;
4345;SDS011;2186;49.866;7.986;2023-04-07T00:15:15;4.70;;;2.03;;
4345;SDS011;2186;49.866;7.986;2023-04-07T00:17:41;4.20;;;3.03;;
4345;SDS011;2186;49.866;7.986;2023-04-07T00:20:08;9.90;;;2.30;;
4345;SDS011;2186;49.866;7.986;2023-04-07T00:22:35;2.33;;;2.13;;
4345;SDS011;2186;49.866;7.986;2023-04-07T00:25:01;29.17;;;2.40;;
4345;SDS011;2186;49.866;7.986;2023-04-07T00:27:28;5.93;;;3.13;;
4345;SDS011;2186;49.866;7.986;2023-04-07T00:29:54;2.30;;;2.10;;
4345;SDS011;2186;49.866;7.986;2023-04-07T00:32:21;2.60;;;2.40;;
4345;SDS011;2186;49.866;7.986;2023-04-07T00:34:47;2.93;;;2.30;;
4345;SDS011;2186;49.866;7.986;2023-04-07T00:37:14;4.77;;;2.60;;
4345;SDS011;2186;49.866;7.986;2023-04-07T00:39:41;3.80;;;3.50;;
4345;SDS011;2186;49.866;7.986;2023-04-07T00:42:07;2.63;;;2.43;;
4345;SDS011;2186;49.866;7.986;2023-04-07T00:44:34;2.13;;;2.03;;
4345;SDS011;2186;49.866;7.986;2023-04-07T00:47:00;2.50;;;2.30;;
4345;SDS011;2186;49.866;7.986;2023-04-07T00:49:27;2.70;;;2.50;;
4345;SDS011;2186;49.866;7.986;2023-04-07T00:51:54;3.67;;;3.37;;
4345;SDS011;2186;49.866;7.986;2023-04-07T00:54:22;4.93;;;1.80;;
4345;SDS011;2186;49.866;7.986;2023-04-07T00:56:49;5.30;;;2.83;;
4345;SDS011;2186;49.866;7.986;2023-04-07T00:59:16;4.23;;;2.07;;
4345;SDS011;2186;49.866;7.986;2023-04-07T01:02:01;2.50;;;2.23;;
4345;SDS011;2186;49.866;7.986;2023-04-07T01:07:39;2.97;;;2.43;;
4345;SDS011;2186;49.866;7.986;2023-04-07T01:10:15;4.53;;;1.90;;
4345;SDS011;2186;49.866;7.986;2023-04-07T01:12:54;2.40;;;2.20;;
4345;SDS011;2186;49.866;7.986;2023-04-07T01:15:30;1.57;;;1.47;;
4345;SDS011;2186;49.866;7.986;2023-04-07T01:18:03;3.20;;;3.00;;
4345;SDS011;2186;49.866;7.986;2023-04-07T01:20:34;1.70;;;1.60;;
4345;SDS011;2186;49.866;7.986;2023-04-07T01:23:05;3.83;;;2.53;;
4345;SDS011;2186;49.866;7.986;2023-04-07T01:31:22;2.40;;;2.27;;
4345;SDS011;2186;49.866;7.986;2023-04-07T01:33:51;4.73;;;2.67;;
4345;SDS011;2186;49.866;7.986;2023-04-07T01:36:21;2.90;;;1.97;;
4345;SDS011;2186;49.866;7.986;2023-04-07T01:38:49;2.13;;;2.00;;
4345;SDS011;2186;49.866;7.986;2023-04-07T01:41:17;2.30;;;1.80;;
4345;SDS011;2186;49.866;7.986;2023-04-07T01:43:44;2.60;;;2.50;;
4345;SDS011;2186;49.866;7.986;2023-04-07T01:46:13;3.50;;;3.37;;
4345;SDS011;2186;49.866;7.986;2023-04-07T01:48:40;1.53;;;1.43;;
4345;SDS011;2186;49.866;7.986;2023-04-07T01:51:07;4.20;;;2.70;;
4345;SDS011;2186;49.866;7.986;2023-04-07T01:53:37;0.67;;;0.67;;
4345;SDS011;2186;49.866;7.986;2023-04-07T01:56:04;1.80;;;1.70;;
4345;SDS011;2186;49.866;7.986;2023-04-07T01:58:31;2.57;;;2.37;;
4345;SDS011;2186;49.866;7.986;2023-04-07T02:00:57;6.73;;;2.37;;
4345;SDS011;2186;49.866;7.986;2023-04-07T02:03:39;5.73;;;1.50;;
4345;SDS011;2186;49.866;7.986;2023-04-07T02:06:12;2.53;;;2.33;;
4345;SDS011;2186;49.866;7.986;2023-04-07T02:08:46;2.97;;;1.70;;
4345;SDS011;2186;49.866;7.986;2023-04-07T02:11:16;4.73;;;2.93;;
4345;SDS011;2186;49.866;7.986;2023-04-07T02:13:45;2.23;;;2.13;;
4345;SDS011;2186;49.866;7.986;2023-04-07T02:16:13;3.50;;;3.20;;
4345;SDS011;2186;49.866;7.986;2023-04-07T02:18:40;5.50;;;3.93;;
4345;SDS011;2186;49.866;7.986;2023-04-07T02:21:09;3.60;;;3.40;;
4345;SDS011;2186;49.866;7.986;2023-04-07T02:23:37;5.23;;;2.80;;
4345;SDS011;2186;49.866;7.986;2023-04-07T02:26:04;5.13;;;2.80;;
4345;SDS011;2186;49.866;7.986;2023-04-07T02:28:31;2.67;;;2.47;;
4345;SDS011;2186;49.866;7.986;2023-04-07T02:30:57;4.47;;;3.03;;
4345;SDS011;2186;49.866;7.986;2023-04-07T02:33:24;2.07;;;1.87;;
4345;SDS011;2186;49.866;7.986;2023-04-07T02:35:50;3.50;;;3.30;;
4345;SDS011;2186;49.866;7.986;2023-04-07T02:38:17;3.13;;;2.93;;
4345;SDS011;2186;49.866;7.986;2023-04-07T02:40:43;4.53;;;3.37;;
4345;SDS011;2186;49.866;7.986;2023-04-07T02:43:09;2.73;;;2.53;;
4345;SDS011;2186;49.866;7.986;2023-04-07T02:45:36;3.00;;;2.80;;
4345;SDS011;2186;49.866;7.986;2023-04-07T02:48:03;5.37;;;2.97;;
4345;SDS011;2186;49.866;7.986;2023-04-07T02:50:29;5.27;;;4.60;;
4345;SDS011;2186;49.866;7.986;2023-04-07T02:52:55;4.20;;;3.90;;
4345;SDS011;2186;49.866;7.986;2023-04-07T02:55:22;3.60;;;3.33;;
4345;SDS011;2186;49.866;7.986;2023-04-07T02:57:48;3.23;;;2.63;;
4345;SDS011;2186;49.866;7.986;2023-04-07T03:00:15;3.97;;;3.57;;
4345;SDS011;2186;49.866;7.986;2023-04-07T03:02:42;4.73;;;4.43;;
4345;SDS011;2186;49.866;7.986;2023-04-07T03:05:08;3.50;;;3.20;;
4345;SDS011;2186;49.866;7.986;2023-04-07T03:07:35;6.23;;;3.57;;
4345;SDS011;2186;49.866;7.986;2023-04-07T03:10:01;8.43;;;4.03;;
4345;SDS011;2186;49.866;7.986;2023-04-07T03:12:27;5.90;;;3.27;;
4345;SDS011;2186;49.866;7.986;2023-04-07T03:14:54;6.43;;;3.70;;
4345;SDS011;2186;49.866;7.986;2023-04-07T03:17:20;3.13;;;2.93;;
4345;SDS011;2186;49.866;7.986;2023-04-07T03:19:47;7.63;;;4.13;;
4345;SDS011;2186;49.866;7.986;2023-04-07T03:22:13;3.27;;;3.17;;
4345;SDS011;2186;49.866;7.986;2023-04-07T03:24:40;4.23;;;3.70;;
4345;SDS011;2186;49.866;7.986;2023-04-07T03:27:06;3.83;;;3.53;;
4345;SDS011;2186;49.866;7.986;2023-04-07T03:29:33;3.30;;;3.10;;
4345;SDS011;2186;49.866;7.986;2023-04-07T03:31:59;8.33;;;3.87;;
4345;SDS011;2186;49.866;7.986;2023-04-07T03:34:26;4.23;;;3.20;;
4345;SDS011;2186;49.866;7.986;2023-04-07T03:36:52;4.80;;;3.50;;
4345;SDS011;2186;49.866;7.986;2023-04-07T03:39:18;3.47;;;3.00;;
4345;SDS011;2186;49.866;7.986;2023-04-07T03:41:45;3.60;;;3.30;;
4345;SDS011;2186;49.866;7.986;2023-04-07T03:44:11;13.73;;;3.87;;
4345;SDS011;2186;49.866;7.986;2023-04-07T03:46:38;3.73;;;3.30;;
4345;SDS011;2186;49.866;7.986;2023-04-07T03:49:04;3.13;;;2.90;;
4345;SDS011;2186;49.866;7.986;2023-04-07T03:51:32;3.77;;;3.47;;
4345;SDS011;2186;49.866;7.986;2023-04-07T03:53:59;3.50;;;3.20;;
4345;SDS011;2186;49.866;7.986;2023-04-07T03:56:25;3.07;;;2.87;;
4345;SDS011;2186;49.866;7.986;2023-04-07T03:58:54;3.33;;;3.13;;
4345;SDS011;2186;49.866;7.986;2023-04-07T04:01:20;6.30;;;4.37;;
4345;SDS011;2186;49.866;7.986;2023-04-07T04:03:48;6.40;;;5.60;;
4345;SDS011;2186;49.866;7.986;2023-04-07T04:06:15;7.23;;;4.97;;
4345;SDS011;2186;49.866;7.986;2023-04-07T04:08:41;5.10;;;4.27;;
4345;SDS011;2186;49.866;7.986;2023-04-07T04:11:08;3.57;;;3.37;;
4345;SDS011;2186;49.866;7.986;2023-04-07T04:13:34;4.50;;;3.77;;
4345;SDS011;2186;49.866;7.986;2023-04-07T04:16:01;5.53;;;5.17;;
4345;SDS011;2186;49.866;7.986;2023-04-07T04:18:27;3.33;;;3.13;;
4345;SDS011;2186;49.866;7.986;2023-04-07T04:20:54;3.77;;;3.47;;
4345;SDS011;2186;49.866;7.986;2023-04-07T04:23:20;6.10;;;3.50;;
4345;SDS011;2186;49.866;7.986;2023-04-07T04:25:47;4.27;;;4.07;;
4345;SDS011;2186;49.866;7.986;2023-04-07T04:28:13;4.13;;;3.83;;
4345;SDS011;2186;49.866;7.986;2023-04-07T04:30:39;3.90;;;3.60;;
4345;SDS011;2186;49.866;7.986;2023-04-07T04:33:06;4.67;;;3.20;;
4345;SDS011;2186;49.866;7.986;2023-04-07T04:35:32;5.40;;;4.80;;
4345;SDS011;2186;49.866;7.986;2023-04-07T04:37:59;5.87;;;2.30;;
4345;SDS011;2186;49.866;7.986;2023-04-07T04:40:25;4.00;;;2.93;;
4345;SDS011;2186;49.866;7.986;2023-04-07T04:42:52;3.33;;;3.03;;
4345;SDS011;2186;49.866;7.986;2023-04-07T04:45:18;5.13;;;3.80;;
4345;SDS011;2186;49.866;7.986;2023-04-07T04:47:45;4.30;;;3.93;;
4345;SDS011;2186;49.866;7.986;2023-04-07T04:50:11;5.60;;;4.00;;
4345;SDS011;2186;49.866;7.986;2023-04-07T04:52:38;2.80;;;2.60;;
4345;SDS011;2186;49.866;7.986;2023-04-07T04:55:04;2.67;;;2.47;;
4345;SDS011;2186;49.866;7.986;2023-04-07T04:57:31;3.07;;;2.87;;
4345;SDS011;2186;49.866;7.986;2023-04-07T05:00:00;2.80;;;2.60;;
4345;SDS011;2186;49.866;7.986;2023-04-07T05:02:29;2.60;;;2.10;;
4345;SDS011;2186;49.866;7.986;2023-04-07T05:04:56;4.20;;;3.80;;
4345;SDS011;2186;49.866;7.986;2023-04-07T05:07:22;3.97;;;3.77;;
4345;SDS011;2186;49.866;7.986;2023-04-07T05:09:49;3.40;;;2.47;;
4345;SDS011;2186;49.866;7.986;2023-04-07T05:12:16;12.50;;;3.17;;
4345;SDS011;2186;49.866;7.986;2023-04-07T05:14:42;3.73;;;3.43;;
4345;SDS011;2186;49.866;7.986;2023-04-07T05:17:09;3.00;;;2.80;;
4345;SDS011;2186;49.866;7.986;2023-04-07T05:19:35;2.97;;;2.77;;
4345;SDS011;2186;49.866;7.986;2023-04-07T05:22:02;6.00;;;2.40;;
4345;SDS011;2186;49.866;7.986;2023-04-07T05:24:28;3.43;;;2.80;;
4345;SDS011;2186;49.866;7.986;2023-04-07T05:26:55;6.77;;;3.27;;
4345;SDS011;2186;49.866;7.986;2023-04-07T05:29:22;3.27;;;3.07;;
4345;SDS011;2186;49.866;7.986;2023-04-07T05:31:48;3.63;;;3.07;;
4345;SDS011;2186;49.866;7.986;2023-04-07T05:34:15;3.30;;;3.00;;
4345;SDS011;2186;49.866;7.986;2023-04-07T05:36:41;1.50;;;1.43;;
4345;SDS011;2186;49.866;7.986;2023-04-07T05:39:08;5.93;;;4.03;;
4345;SDS011;2186;49.866;7.986;2023-04-07T05:41:34;4.63;;;2.20;;
4345;SDS011;2186;49.866;7.986;2023-04-07T05:44:01;3.40;;;3.10;;
4345;SDS011;2186;49.866;7.986;2023-04-07T05:46:27;7.93;;;4.67;;
4345;SDS011;2186;49.866;7.986;2023-04-07T05:48:54;3.30;;;3.00;;
4345;SDS011;2186;49.866;7.986;2023-04-07T05:51:22;3.13;;;2.83;;
4345;SDS011;2186;49.866;7.986;2023-04-07T05:53:48;4.30;;;3.90;;
4345;SDS011;2186;49.866;7.986;2023-04-07T05:56:15;10.23;;;2.97;;
4345;SDS011;2186;49.866;7.986;2023-04-07T05:58:42;3.00;;;2.80;;
4345;SDS011;2186;49.866;7.986;2023-04-07T06:01:08;2.57;;;2.37;;
4345;SDS011;2186;49.866;7.986;2023-04-07T06:03:35;2.50;;;2.10;;
4345;SDS011;2186;49.866;7.986;2023-04-07T06:06:01;5.57;;;3.33;;
4345;SDS011;2186;49.866;7.986;2023-04-07T06:08:28;3.20;;;3.00;;
4345;SDS011;2186;49.866;7.986;2023-04-07T06:10:54;2.30;;;2.10;;
4345;SDS011;2186;49.866;7.986;2023-04-07T06:13:21;3.00;;;2.80;;
4345;SDS011;2186;49.866;7.986;2023-04-07T06:15:47;5.67;;;5.17;;
4345;SDS011;2186;49.866;7.986;2023-04-07T06:18:14;10.33;;;3.87;;
4345;SDS011;2186;49.866;7.986;2023-04-07T06:20:40;2.93;;;2.73;;
4345;SDS011;2186;49.866;7.986;2023-04-07T06:23:07;3.23;;;3.03;;
4345;SDS011;2186;49.866;7.986;2023-04-07T06:25:33;2.50;;;2.30;;
4345;SDS011;2186;49.866;7.986;2023-04-07T06:28:00;3.20;;;3.00;;
4345;SDS011;2186;49.866;7.986;2023-04-07T06:30:27;2.00;;;1.80;;
4345;SDS011;2186;49.866;7.986;2023-04-07T06:32:53;3.30;;;2.70;;
4345;SDS011;2186;49.866;7.986;2023-04-07T06:35:20;5.17;;;3.73;;
4345;SDS011;2186;49.866;7.986;2023-04-07T06:37:46;4.03;;;2.27;;
4345;SDS011;2186;49.866;7.986;2023-04-07T06:40:13;2.40;;;2.27;;
4345;SDS011;2186;49.866;7.986;2023-04-07T06:42:39;5.97;;;4.03;;
4345;SDS011;2186;49.866;7.986;2023-04-07T06:45:06;4.60;;;4.20;;
4345;SDS011;2186;49.866;7.986;2023-04-07T06:47:33;4.43;;;4.07;;
4345;SDS011;2186;49.866;7.986;2023-04-07T06:50:00;3.83;;;3.53;;
4345;SDS011;2186;49.866;7.986;2023-04-07T06:52:26;3.90;;;3.60;;
4345;SDS011;2186;49.866;7.986;2023-04-07T06:54:52;4.20;;;3.90;;
4345;SDS011;2186;49.866;7.986;2023-04-07T06:57:19;4.50;;;4.10;;
4345;SDS011;2186;49.866;7.986;2023-04-07T06:59:45;14.67;;;3.17;;
4345;SDS011;2186;49.866;7.986;2023-04-07T07:02:12;3.90;;;3.70;;
4345;SDS011;2186;49.866;7.986;2023-04-07T07:04:38;5.23;;;3.20;;
4345;SDS011;2186;49.866;7.986;2023-04-07T07:07:05;6.90;;;3.77;;
4345;SDS011;2186;49.866;7.986;2023-04-07T07:09:31;4.63;;;3.90;;
4345;SDS011;2186;49.866;7.986;2023-04-07T07:11:58;2.57;;;2.10;;
4345;SDS011;2186;49.866;7.986;2023-04-07T07:14:29;4.50;;;4.10;;
4345;SDS011;2186;49.866;7.986;2023-04-07T07:16:55;3.17;;;2.93;;
4345;SDS011;2186;49.866;7.986;2023-04-07T07:19:22;2.80;;;2.60;;
4345;SDS011;2186;49.866;7.986;2023-04-07T07:21:48;15.73;;;3.50;;
4345;SDS011;2186;49.866;7.986;2023-04-07T07:24:14;3.13;;;2.93;;
4345;SDS011;2186;49.866;7.986;2023-04-07T07:26:41;3.20;;;3.00;;
4345;SDS011;2186;49.866;7.986;2023-04-07T07:29:09;4.17;;;2.80;;
4345;SDS011;2186;49.866;7.986;2023-04-07T07:31:36;3.70;;;3.53;;
4345;SDS011;2186;49.866;7.986;2023-04-07T07:34:02;5.13;;;4.10;;
4345;SDS011;2186;49.866;7.986;2023-04-07T07:36:29;4.30;;;4.00;;
4345;SDS011;2186;49.866;7.986;2023-04-07T07:38:57;4.37;;;4.07;;
4345;SDS011;2186;49.866;7.986;2023-04-07T07:41:23;4.20;;;3.90;;
4345;SDS011;2186;49.866;7.986;2023-04-07T07:43:51;12.00;;;3.93;;
4345;SDS011;2186;49.866;7.986;2023-04-07T07:46:18;4.87;;;4.50;;
4345;SDS011;2186;49.866;7.986;2023-04-07T07:48:44;4.17;;;3.43;;
4345;SDS011;2186;49.866;7.986;2023-04-07T07:51:12;2.90;;;2.70;;
4345;SDS011;2186;49.866;7.986;2023-04-07T07:53:38;11.27;;;3.63;;
4345;SDS011;2186;49.866;7.986;2023-04-07T07:56:05;3.93;;;3.53;;
4345;SDS011;2186;49.866;7.986;2023-04-07T07:58:31;3.67;;;3.20;;
4345;SDS011;2186;49.866;7.986;2023-04-07T08:00:58;5.90;;;4.03;;
4345;SDS011;2186;49.866;7.986;2023-04-07T08:03:24;3.87;;;3.53;;
4345;SDS011;2186;49.866;7.986;2023-04-07T08:05:51;5.07;;;3.93;;
4345;SDS011;2186;49.866;7.986;2023-04-07T08:08:17;5.33;;;4.90;;
4345;SDS011;2186;49.866;7.986;2023-04-07T08:10:44;4.70;;;3.30;;
4345;SDS011;2186;49.866;7.986;2023-04-07T08:13:11;21.87;;;2.97;;
4345;SDS011;2186;49.866;7.986;2023-04-07T08:15:38;4.53;;;4.03;;
4345;SDS011;2186;49.866;7.986;2023-04-07T08:18:05;4.57;;;4.27;;
4345;SDS011;2186;49.866;7.986;2023-04-07T08:20:32;3.67;;;3.47;;
4345;SDS011;2186;49.866;7.986;2023-04-07T08:22:59;3.83;;;3.10;;
4345;SDS011;2186;49.866;7.986;2023-04-07T08:25:27;4.40;;;4.10;;
4345;SDS011;2186;49.866;7.986;2023-04-07T08:27:54;4.57;;;4.23;;
4345;SDS011;2186;49.866;7.986;2023-04-07T08:30:21;5.17;;;3.90;;
4345;SDS011;2186;49.866;7.986;2023-04-07T08:32:47;5.13;;;3.73;;
4345;SDS011;2186;49.866;7.986;2023-04-07T08:35:14;6.77;;;4.67;;
4345;SDS011;2186;49.866;7.986;2023-04-07T08:37:40;4.60;;;4.20;;
4345;SDS011;2186;49.866;7.986;2023-04-07T08:40:09;6.07;;;5.47;;
4345;SDS011;2186;49.866;7.986;2023-04-07T08:42:38;3.20;;;3.00;;
4345;SDS011;2186;49.866;7.986;2023-04-07T08:45:07;3.30;;;3.10;;
4345;SDS011;2186;49.866;7.986;2023-04-07T08:47:35;11.63;;;4.03;;
4345;SDS011;2186;49.866;7.986;2023-04-07T08:50:04;3.07;;;2.80;;
4345;SDS011;2186;49.866;7.986;2023-04-07T08:52:33;3.70;;;3.40;;
4345;SDS011;2186;49.866;7.986;2023-04-07T08:55:11;1.40;;;1.30;;
4345;SDS011;2186;49.866;7.986;2023-04-07T08:57:38;3.00;;;2.80;;
4345;SDS011;2186;49.866;7.986;2023-04-07T09:00:06;2.37;;;2.27;;
4345;SDS011;2186;49.866;7.986;2023-04-07T09:02:34;2.63;;;2.43;;
4345;SDS011;2186;49.866;7.986;2023-04-07T09:05:03;3.10;;;2.43;;
4345;SDS011;2186;49.866;7.986;2023-04-07T09:07:31;3.37;;;3.17;;
4345;SDS011;2186;49.866;7.986;2023-04-07T09:09:59;2.50;;;2.30;;
4345;SDS011;2186;49.866;7.986;2023-04-07T09:12:27;2.60;;;2.40;;
4345;SDS011;2186;49.866;7.986;2023-04-07T09:14:55;2.67;;;2.33;;
4345;SDS011;2186;49.866;7.986;2023-04-07T09:17:23;4.40;;;2.90;;
4345;SDS011;2186;49.866;7.986;2023-04-07T09:19:52;4.20;;;4.00;;
4345;SDS011;2186;49.866;7.986;2023-04-07T09:25:13;1.87;;;1.63;;
4345;SDS011;2186;49.866;7.986;2023-04-07T09:27:40;2.07;;;1.97;;
4345;SDS011;2186;49.866;7.986;2023-04-07T09:30:23;4.10;;;2.63;;
4345;SDS011;2186;49.866;7.986;2023-04-07T09:32:50;2.00;;;1.90;;
4345;SDS011;2186;49.866;7.986;2023-04-07T09:35:17;2.40;;;2.20;;
4345;SDS011;2186;49.866;7.986;2023-04-07T09:37:43;3.87;;;3.07;;
4345;SDS011;2186;49.866;7.986;2023-04-07T09:40:10;3.73;;;3.43;;
4345;SDS011;2186;49.866;7.986;2023-04-07T09:42:44;2.80;;;2.60;;
4345;SDS011;2186;49.866;7.986;2023-04-07T09:45:11;3.30;;;1.27;;
4345;SDS011;2186;49.866;7.986;2023-04-07T09:47:52;2.93;;;2.10;;
4345;SDS011;2186;49.866;7.986;2023-04-07T09:50:37;6.27;;;2.43;;
4345;SDS011;2186;49.866;7.986;2023-04-07T09:53:05;1.90;;;1.80;;
4345;SDS011;2186;49.866;7.986;2023-04-07T09:55:32;2.00;;;1.90;;
4345;SDS011;2186;49.866;7.986;2023-04-07T09:57:59;1.97;;;1.73;;
4345;SDS011;2186;49.866;7.986;2023-04-07T10:00:26;1.03;;;0.90;;
4345;SDS011;2186;49.866;7.986;2023-04-07T10:02:52;2.43;;;2.33;;
4345;SDS011;2186;49.866;7.986;2023-04-07T10:05:19;2.37;;;1.47;;
4345;SDS011;2186;49.866;7.986;2023-04-07T10:07:48;1.30;;;1.20;;
4345;SDS011;2186;49.866;7.986;2023-04-07T10:10:15;2.20;;;2.10;;
4345;SDS011;2186;49.866;7.986;2023-04-07T10:12:41;2.17;;;1.70;;
4345;SDS011;2186;49.866;7.986;2023-04-07T10:15:10;3.13;;;2.90;;
4345;SDS011;2186;49.866;7.986;2023-04-07T10:17:39;2.20;;;1.97;;
4345;SDS011;2186;49.866;7.986;2023-04-07T10:20:06;4.67;;;4.23;;
4345;SDS011;2186;49.866;7.986;2023-04-07T10:22:35;1.30;;;1.20;;
4345;SDS011;2186;49.866;7.986;2023-04-07T10:25:07;3.50;;;3.20;;
4345;SDS011;2186;49.866;7.986;2023-04-07T10:27:41;2.30;;;2.10;;
4345;SDS011;2186;49.866;7.986;2023-04-07T10:30:17;3.87;;;1.73;;
4345;SDS011;2186;49.866;7.986;2023-04-07T10:32:48;3.17;;;2.67;;
4345;SDS011;2186;49.866;7.986;2023-04-07T10:35:15;2.60;;;1.90;;
4345;SDS011;2186;49.866;7.986;2023-04-07T10:40:36;2.97;;;2.47;;
4345;SDS011;2186;49.866;7.986;2023-04-07T10:43:03;4.00;;;2.17;;
4345;SDS011;2186;49.866;7.986;2023-04-07T10:48:18;3.27;;;1.43;;
4345;SDS011;2186;49.866;7.986;2023-04-07T10:50:45;3.57;;;2.20;;
4345;SDS011;2186;49.866;7.986;2023-04-07T10:53:33;2.03;;;1.83;;
4345;SDS011;2186;49.866;7.986;2023-04-07T10:56:03;2.00;;;1.30;;
4345;SDS011;2186;49.866;7.986;2023-04-07T10:58:31;24.37;;;2.40;;
4345;SDS011;2186;49.866;7.986;2023-04-07T11:03:38;2.40;;;1.33;;
4345;SDS011;2186;49.866;7.986;2023-04-07T11:06:08;1.53;;;1.20;;
4345;SDS011;2186;49.866;7.986;2023-04-07T11:08:35;1.70;;;1.60;;
4345;SDS011;2186;49.866;7.986;2023-04-07T11:11:04;1.83;;;1.73;;
4345;SDS011;2186;49.866;7.986;2023-04-07T11:13:44;4.50;;;1.77;;
4345;SDS011;2186;49.866;7.986;2023-04-07T11:16:13;5.10;;;2.03;;
4345;SDS011;2186;49.866;7.986;2023-04-07T11:18:41;2.07;;;1.77;;
4345;SDS011;2186;49.866;7.986;2023-04-07T11:21:08;1.97;;;1.87;;
4345;SDS011;2186;49.866;7.986;2023-04-07T11:23:41;2.30;;;2.10;;
4345;SDS011;2186;49.866;7.986;2023-04-07T11:26:09;3.87;;;1.60;;
4345;SDS011;2186;49.866;7.986;2023-04-07T11:28:53;1.43;;;1.33;;
4345;SDS011;2186;49.866;7.986;2023-04-07T11:31:24;4.80;;;1.30;;
4345;SDS011;2186;49.866;7.986;2023-04-07T11:33:55;4.17;;;1.83;;
4345;SDS011;2186;49.866;7.986;2023-04-07T11:36:28;1.47;;;1.37;;
4345;SDS011;2186;49.866;7.986;2023-04-07T11:38:56;3.13;;;1.20;;
4345;SDS011;2186;49.866;7.986;2023-04-07T11:41:22;2.50;;;1.10;;
4345;SDS011;2186;49.866;7.986;2023-04-07T11:44:07;2.17;;;2.07;;
4345;SDS011;2186;49.866;7.986;2023-04-07T11:49:28;1.70;;;1.60;;
4345;SDS011;2186;49.866;7.986;2023-04-07T11:52:03;1.07;;;0.97;;
4345;SDS011;2186;49.866;7.986;2023-04-07T11:54:42;5.43;;;2.20;;
4345;SDS011;2186;49.866;7.986;2023-04-07T11:57:26;2.53;;;2.43;;
4345;SDS011;2186;49.866;7.986;2023-04-07T12:00:09;2.17;;;1.97;;
4345;SDS011;2186;49.866;7.986;2023-04-07T12:02:37;1.43;;;1.33;;
4345;SDS011;2186;49.866;7.986;2023-04-07T12:05:04;1.10;;;1.00;;
4345;SDS011;2186;49.866;7.986;2023-04-07T12:07:31;6.53;;;1.87;;
4345;SDS011;2186;49.866;7.986;2023-04-07T12:10:13;0.83;;;0.67;;
4345;SDS011;2186;49.866;7.986;2023-04-07T12:12:44;2.93;;;1.80;;
4345;SDS011;2186;49.866;7.986;2023-04-07T12:15:11;2.03;;;1.90;;
4345;SDS011;2186;49.866;7.986;2023-04-07T12:17:42;1.57;;;0.70;;
4345;SDS011;2186;49.866;7.986;2023-04-07T12:20:10;1.13;;;1.03;;
4345;SDS011;2186;49.866;7.986;2023-04-07T12:22:36;1.20;;;0.90;;
4345;SDS011;2186;49.866;7.986;2023-04-07T12:25:03;1.53;;;1.43;;
4345;SDS011;2186;49.866;7.986;2023-04-07T12:27:29;1.23;;;0.63;;
4345;SDS011;2186;49.866;7.986;2023-04-07T12:30:08;1.70;;;1.60;;
4345;SDS011;2186;49.866;7.986;2023-04-07T12:32:35;6.53;;;1.63;;
4345;SDS011;2186;49.866;7.986;2023-04-07T12:35:03;3.23;;;1.03;;
4345;SDS011;2186;49.866;7.986;2023-04-07T12:37:30;2.07;;;0.97;;
4345;SDS011;2186;49.866;7.986;2023-04-07T12:39:57;2.10;;;1.13;;
4345;SDS011;2186;49.866;7.986;2023-04-07T12:42:25;1.33;;;0.90;;
4345;SDS011;2186;49.866;7.986;2023-04-07T12:44:52;3.60;;;1.53;;
4345;SDS011;2186;49.866;7.986;2023-04-07T12:47:18;1.43;;;1.33;;
4345;SDS011;2186;49.866;7.986;2023-04-07T12:49:45;1.03;;;1.00;;
4345;SDS011;2186;49.866;7.986;2023-04-07T12:52:14;1.57;;;1.50;;
4345;SDS011;2186;49.866;7.986;2023-04-07T12:54:41;1.17;;;1.07;;
4345;SDS011;2186;49.866;7.986;2023-04-07T12:57:09;0.90;;;0.83;;
4345;SDS011;2186;49.866;7.986;2023-04-07T12:59:36;2.27;;;2.10;;
4345;SDS011;2186;49.866;7.986;2023-04-07T13:02:02;1.30;;;1.20;;
4345;SDS011;2186;49.866;7.986;2023-04-07T13:04:29;1.37;;;1.27;;
4345;SDS011;2186;49.866;7.986;2023-04-07T13:06:56;1.00;;;1.00;;
4345;SDS011;2186;49.866;7.986;2023-04-07T13:09:23;1.10;;;0.93;;
4345;SDS011;2186;49.866;7.986;2023-04-07T13:11:50;1.60;;;1.50;;
4345;SDS011;2186;49.866;7.986;2023-04-07T13:14:17;2.10;;;1.00;;
4345;SDS011;2186;49.866;7.986;2023-04-07T13:16:43;4.07;;;3.87;;
4345;SDS011;2186;49.866;7.986;2023-04-07T13:19:10;1.53;;;1.43;;
4345;SDS011;2186;49.866;7.986;2023-04-07T13:21:36;1.43;;;1.10;;
4345;SDS011;2186;49.866;7.986;2023-04-07T13:24:05;3.00;;;1.60;;
4345;SDS011;2186;49.866;7.986;2023-04-07T13:26:32;1.73;;;0.90;;
4345;SDS011;2186;49.866;7.986;2023-04-07T13:28:59;1.80;;;1.00;;
4345;SDS011;2186;49.866;7.986;2023-04-07T13:31:26;2.10;;;0.83;;
4345;SDS011;2186;49.866;7.986;2023-04-07T13:33:53;0.80;;;0.70;;
4345;SDS011;2186;49.866;7.986;2023-04-07T13:36:20;1.03;;;0.93;;
4345;SDS011;2186;49.866;7.986;2023-04-07T13:38:48;1.73;;;1.63;;
4345;SDS011;2186;49.866;7.986;2023-04-07T13:41:15;6.63;;;1.73;;
4345;SDS011;2186;49.866;7.986;2023-04-07T13:43:41;0.93;;;0.83;;
4345;SDS011;2186;49.866;7.986;2023-04-07T13:46:07;2.07;;;1.23;;
4345;SDS011;2186;49.866;7.986;2023-04-07T13:48:45;0.60;;;0.60;;
4345;SDS011;2186;49.866;7.986;2023-04-07T13:51:11;1.07;;;0.97;;
4345;SDS011;2186;49.866;7.986;2023-04-07T13:53:38;1.17;;;1.07;;
4345;SDS011;2186;49.866;7.986;2023-04-07T13:56:04;1.23;;;0.93;;
4345;SDS011;2186;49.866;7.986;2023-04-07T13:58:33;6.53;;;2.47;;
4345;SDS011;2186;49.866;7.986;2023-04-07T14:01:00;1.90;;;1.80;;
4345;SDS011;2186;49.866;7.986;2023-04-07T14:03:27;2.60;;;1.67;;
4345;SDS011;2186;49.866;7.986;2023-04-07T14:05:53;2.00;;;1.20;;
4345;SDS011;2186;49.866;7.986;2023-04-07T14:08:26;1.37;;;1.27;;
4345;SDS011;2186;49.866;7.986;2023-04-07T14:10:52;0.57;;;0.53;;
4345;SDS011;2186;49.866;7.986;2023-04-07T14:13:19;2.83;;;1.27;;
4345;SDS011;2186;49.866;7.986;2023-04-07T14:15:45;1.30;;;1.20;;
4345;SDS011;2186;49.866;7.986;2023-04-07T14:18:13;0.80;;;0.80;;
4345;SDS011;2186;49.866;7.986;2023-04-07T14:20:39;1.60;;;1.50;;
4345;SDS011;2186;49.866;7.986;2023-04-07T14:23:06;0.97;;;0.97;;
4345;SDS011;2186;49.866;7.986;2023-04-07T14:25:33;1.47;;;1.37;;
4345;SDS011;2186;49.866;7.986;2023-04-07T14:28:00;1.23;;;1.13;;
4345;SDS011;2186;49.866;7.986;2023-04-07T14:30:26;4.27;;;1.60;;
4345;SDS011;2186;49.866;7.986;2023-04-07T14:32:53;8.70;;;1.63;;
4345;SDS011;2186;49.866;7.986;2023-04-07T14:35:19;6.63;;;1.27;;
4345;SDS011;2186;49.866;7.986;2023-04-07T14:37:46;0.87;;;0.83;;
4345;SDS011;2186;49.866;7.986;2023-04-07T14:40:13;1.37;;;1.27;;
4345;SDS011;2186;49.866;7.986;2023-04-07T14:42:39;1.10;;;1.00;;
4345;SDS011;2186;49.866;7.986;2023-04-07T14:45:06;1.83;;;1.73;;
4345;SDS011;2186;49.866;7.986;2023-04-07T14:47:34;1.80;;;1.70;;
4345;SDS011;2186;49.866;7.986;2023-04-07T14:50:00;1.07;;;0.80;;
4345;SDS011;2186;49.866;7.986;2023-04-07T14:52:27;0.83;;;0.77;;
4345;SDS011;2186;49.866;7.986;2023-04-07T14:54:53;1.17;;;1.07;;
4345;SDS011;2186;49.866;7.986;2023-04-07T14:57:20;1.30;;;1.20;;
4345;SDS011;2186;49.866;7.986;2023-04-07T14:59:47;1.40;;;1.20;;
4345;SDS011;2186;49.866;7.986;2023-04-07T15:02:13;14.20;;;1.23;;
4345;SDS011;2186;49.866;7.986;2023-04-07T15:04:40;1.27;;;1.03;;
4345;SDS011;2186;49.866;7.986;2023-04-07T15:07:06;1.10;;;1.00;;
4345;SDS011;2186;49.866;7.986;2023-04-07T15:09:33;3.33;;;1.80;;
4345;SDS011;2186;49.866;7.986;2023-04-07T15:11:59;1.60;;;1.40;;
4345;SDS011;2186;49.866;7.986;2023-04-07T15:14:27;1.73;;;1.63;;
4345;SDS011;2186;49.866;7.986;2023-04-07T15:16:53;3.10;;;2.03;;
4345;SDS011;2186;49.866;7.986;2023-04-07T15:19:20;4.03;;;2.00;;
4345;SDS011;2186;49.866;7.986;2023-04-07T15:21:46;1.70;;;0.90;;
4345;SDS011;2186;49.866;7.986;2023-04-07T15:24:13;5.80;;;1.37;;
4345;SDS011;2186;49.866;7.986;2023-04-07T15:26:41;3.87;;;1.70;;
4345;SDS011;2186;49.866;7.986;2023-04-07T15:29:08;2.50;;;0.97;;
4345;SDS011;2186;49.866;7.986;2023-04-07T15:31:34;1.63;;;1.53;;
4345;SDS011;2186;49.866;7.986;2023-04-07T15:34:01;1.60;;;1.33;;
4345;SDS011;2186;49.866;7.986;2023-04-07T15:36:27;1.37;;;0.97;;
4345;SDS011;2186;49.866;7.986;2023-04-07T15:38:54;1.13;;;0.90;;
4345;SDS011;2186;49.866;7.986;2023-04-07T15:41:20;1.50;;;0.97;;